sensor_id;sensor_type;location;lat;lon;timestamp;P1;durP1;ratioP1;P2;durP2;ratioP2
54855;SDS011;40748;53.168;5.800;2022-07-06T00:01:52;5.90;;;1.00;;
54855;SDS011;40748;53.168;5.800;2022-07-06T00:04:22;5.90;;;1.00;;
54855;SDS011;40748;53.168;5.800;2022-07-06T00:06:52;7.70;;;1.10;;
54855;SDS011;40748;53.168;5.800;2022-07-06T00:09:22;7.70;;;1.10;;
54855;SDS011;40748;53.168;5.800;2022-07-06T00:14:22;7.70;;;1.10;;
54855;SDS011;40748;53.168;5.800;2022-07-06T00:16:52;5.70;;;1.00;;
54855;SDS011;40748;53.168;5.800;2022-07-06T00:19:22;5.70;;;1.00;;
54855;SDS011;40748;53.168;5.800;2022-07-06T00:21:52;5.70;;;1.00;;
54855;SDS011;40748;53.168;5.800;2022-07-06T00:24:22;5.70;;;1.00;;
54855;SDS011;40748;53.168;5.800;2022-07-06T00:26:52;5.30;;;1.00;;
54855;SDS011;40748;53.168;5.800;2022-07-06T00:36:53;8.40;;;1.10;;
54855;SDS011;40748;53.168;5.800;2022-07-06T00:41:52;8.40;;;1.10;;
54855;SDS011;40748;53.168;5.800;2022-07-06T00:44:22;8.40;;;1.10;;
54855;SDS011;40748;53.168;5.800;2022-07-06T00:46:52;5.40;;;1.30;;
54855;SDS011;40748;53.168;5.800;2022-07-06T00:51:52;5.40;;;1.30;;
54855;SDS011;40748;53.168;5.800;2022-07-06T00:54:22;5.40;;;1.30;;
54855;SDS011;40748;53.168;5.800;2022-07-06T00:56:52;6.50;;;1.00;;
54855;SDS011;40748;53.168;5.800;2022-07-06T01:06:52;5.40;;;0.80;;
54855;SDS011;40748;53.168;5.800;2022-07-06T01:09:22;5.40;;;0.80;;
54855;SDS011;40748;53.168;5.800;2022-07-06T01:11:53;5.40;;;0.80;;
54855;SDS011;40748;53.168;5.800;2022-07-06T01:16:52;5.00;;;1.00;;
54855;SDS011;40748;53.168;5.800;2022-07-06T01:24:22;5.00;;;1.00;;
54855;SDS011;40748;53.168;5.800;2022-07-06T01:26:52;6.20;;;0.90;;
54855;SDS011;40748;53.168;5.800;2022-07-06T01:31:52;6.20;;;0.90;;
54855;SDS011;40748;53.168;5.800;2022-07-06T01:36:53;6.80;;;1.30;;
54855;SDS011;40748;53.168;5.800;2022-07-06T01:39:22;6.80;;;1.30;;
54855;SDS011;40748;53.168;5.800;2022-07-06T01:41:52;6.80;;;1.30;;
54855;SDS011;40748;53.168;5.800;2022-07-06T01:44:22;6.80;;;1.30;;
54855;SDS011;40748;53.168;5.800;2022-07-06T01:49:22;9.20;;;1.30;;
54855;SDS011;40748;53.168;5.800;2022-07-06T01:54:22;9.20;;;1.30;;
54855;SDS011;40748;53.168;5.800;2022-07-06T01:56:52;6.20;;;1.00;;
54855;SDS011;40748;53.168;5.800;2022-07-06T02:01:52;6.20;;;1.00;;
54855;SDS011;40748;53.168;5.800;2022-07-06T02:04:22;6.20;;;1.00;;
54855;SDS011;40748;53.168;5.800;2022-07-06T02:06:52;8.50;;;1.20;;
54855;SDS011;40748;53.168;5.800;2022-07-06T02:09:22;8.50;;;1.20;;
54855;SDS011;40748;53.168;5.800;2022-07-06T02:11:52;8.50;;;1.20;;
54855;SDS011;40748;53.168;5.800;2022-07-06T02:16:52;6.70;;;1.10;;
54855;SDS011;40748;53.168;5.800;2022-07-06T02:19:22;6.70;;;1.10;;
54855;SDS011;40748;53.168;5.800;2022-07-06T02:21:52;6.70;;;1.10;;
54855;SDS011;40748;53.168;5.800;2022-07-06T02:24:22;6.70;;;1.10;;
54855;SDS011;40748;53.168;5.800;2022-07-06T02:29:22;6.30;;;0.90;;
54855;SDS011;40748;53.168;5.800;2022-07-06T02:31:52;6.30;;;0.90;;
54855;SDS011;40748;53.168;5.800;2022-07-06T02:34:22;6.30;;;0.90;;
54855;SDS011;40748;53.168;5.800;2022-07-06T02:36:52;8.40;;;1.10;;
54855;SDS011;40748;53.168;5.800;2022-07-06T02:39:22;8.40;;;1.10;;
54855;SDS011;40748;53.168;5.800;2022-07-06T02:41:52;8.40;;;1.10;;
54855;SDS011;40748;53.168;5.800;2022-07-06T02:44:22;8.40;;;1.10;;
54855;SDS011;40748;53.168;5.800;2022-07-06T02:46:52;9.50;;;1.10;;
54855;SDS011;40748;53.168;5.800;2022-07-06T02:49:22;9.50;;;1.10;;
54855;SDS011;40748;53.168;5.800;2022-07-06T02:51:52;9.50;;;1.10;;
54855;SDS011;40748;53.168;5.800;2022-07-06T02:54:22;9.50;;;1.10;;
54855;SDS011;40748;53.168;5.800;2022-07-06T02:56:52;6.70;;;0.90;;
54855;SDS011;40748;53.168;5.800;2022-07-06T02:59:22;6.70;;;0.90;;
54855;SDS011;40748;53.168;5.800;2022-07-06T03:01:52;6.70;;;0.90;;
54855;SDS011;40748;53.168;5.800;2022-07-06T03:04:22;6.70;;;0.90;;
54855;SDS011;40748;53.168;5.800;2022-07-06T03:06:52;8.50;;;1.00;;
54855;SDS011;40748;53.168;5.800;2022-07-06T03:09:22;8.50;;;1.00;;
54855;SDS011;40748;53.168;5.800;2022-07-06T03:11:52;8.50;;;1.00;;
54855;SDS011;40748;53.168;5.800;2022-07-06T03:14:22;8.50;;;1.00;;
54855;SDS011;40748;53.168;5.800;2022-07-06T03:16:52;5.50;;;1.00;;
54855;SDS011;40748;53.168;5.800;2022-07-06T03:19:22;5.50;;;1.00;;
54855;SDS011;40748;53.168;5.800;2022-07-06T03:21:52;5.50;;;1.00;;
54855;SDS011;40748;53.168;5.800;2022-07-06T03:24:22;5.50;;;1.00;;
54855;SDS011;40748;53.168;5.800;2022-07-06T03:26:52;8.90;;;1.20;;
54855;SDS011;40748;53.168;5.800;2022-07-06T03:29:22;8.90;;;1.20;;
54855;SDS011;40748;53.168;5.800;2022-07-06T03:31:52;8.90;;;1.20;;
54855;SDS011;40748;53.168;5.800;2022-07-06T03:34:22;8.90;;;1.20;;
54855;SDS011;40748;53.168;5.800;2022-07-06T03:36:52;7.70;;;1.10;;
54855;SDS011;40748;53.168;5.800;2022-07-06T03:39:22;7.70;;;1.10;;
54855;SDS011;40748;53.168;5.800;2022-07-06T03:41:52;7.70;;;1.10;;
54855;SDS011;40748;53.168;5.800;2022-07-06T03:44:22;7.70;;;1.10;;
54855;SDS011;40748;53.168;5.800;2022-07-06T03:46:52;7.00;;;1.00;;
54855;SDS011;40748;53.168;5.800;2022-07-06T03:49:22;7.00;;;1.00;;
54855;SDS011;40748;53.168;5.800;2022-07-06T03:51:52;7.00;;;1.00;;
54855;SDS011;40748;53.168;5.800;2022-07-06T03:54:22;7.00;;;1.00;;
54855;SDS011;40748;53.168;5.800;2022-07-06T03:56:52;8.20;;;1.30;;
54855;SDS011;40748;53.168;5.800;2022-07-06T03:59:22;8.20;;;1.30;;
54855;SDS011;40748;53.168;5.800;2022-07-06T04:01:52;8.20;;;1.30;;
54855;SDS011;40748;53.168;5.800;2022-07-06T04:04:22;8.20;;;1.30;;
54855;SDS011;40748;53.168;5.800;2022-07-06T04:06:52;6.50;;;1.20;;
54855;SDS011;40748;53.168;5.800;2022-07-06T04:09:22;6.50;;;1.20;;
54855;SDS011;40748;53.168;5.800;2022-07-06T04:19:22;6.70;;;1.50;;
54855;SDS011;40748;53.168;5.800;2022-07-06T04:21:52;6.70;;;1.50;;
54855;SDS011;40748;53.168;5.800;2022-07-06T04:24:22;6.70;;;1.50;;
54855;SDS011;40748;53.168;5.800;2022-07-06T04:26:52;5.40;;;1.30;;
54855;SDS011;40748;53.168;5.800;2022-07-06T04:29:22;5.40;;;1.30;;
54855;SDS011;40748;53.168;5.800;2022-07-06T04:31:52;5.40;;;1.30;;
54855;SDS011;40748;53.168;5.800;2022-07-06T04:34:23;5.40;;;1.30;;
54855;SDS011;40748;53.168;5.800;2022-07-06T04:36:52;7.60;;;1.20;;
54855;SDS011;40748;53.168;5.800;2022-07-06T04:39:22;7.60;;;1.20;;
54855;SDS011;40748;53.168;5.800;2022-07-06T04:41:52;7.60;;;1.20;;
54855;SDS011;40748;53.168;5.800;2022-07-06T04:44:22;7.60;;;1.20;;
54855;SDS011;40748;53.168;5.800;2022-07-06T04:46:52;6.00;;;1.20;;
54855;SDS011;40748;53.168;5.800;2022-07-06T04:49:22;6.00;;;1.20;;
54855;SDS011;40748;53.168;5.800;2022-07-06T04:51:52;6.00;;;1.20;;
54855;SDS011;40748;53.168;5.800;2022-07-06T04:54:22;6.00;;;1.20;;
54855;SDS011;40748;53.168;5.800;2022-07-06T04:56:52;6.60;;;1.00;;
54855;SDS011;40748;53.168;5.800;2022-07-06T04:59:22;6.60;;;1.00;;
54855;SDS011;40748;53.168;5.800;2022-07-06T05:01:52;6.60;;;1.00;;
54855;SDS011;40748;53.168;5.800;2022-07-06T05:04:22;6.60;;;1.00;;
54855;SDS011;40748;53.168;5.800;2022-07-06T05:06:52;6.20;;;1.10;;
54855;SDS011;40748;53.168;5.800;2022-07-06T05:09:23;6.20;;;1.10;;
54855;SDS011;40748;53.168;5.800;2022-07-06T05:11:52;6.20;;;1.10;;
54855;SDS011;40748;53.168;5.800;2022-07-06T05:14:22;6.20;;;1.10;;
54855;SDS011;40748;53.168;5.800;2022-07-06T05:16:52;7.40;;;1.30;;
54855;SDS011;40748;53.168;5.800;2022-07-06T05:19:22;7.40;;;1.30;;
54855;SDS011;40748;53.168;5.800;2022-07-06T05:21:52;7.40;;;1.30;;
54855;SDS011;40748;53.168;5.800;2022-07-06T05:24:22;7.40;;;1.30;;
54855;SDS011;40748;53.168;5.800;2022-07-06T05:26:52;5.00;;;0.90;;
54855;SDS011;40748;53.168;5.800;2022-07-06T05:29:22;5.00;;;0.90;;
54855;SDS011;40748;53.168;5.800;2022-07-06T05:31:52;5.00;;;0.90;;
54855;SDS011;40748;53.168;5.800;2022-07-06T05:34:22;5.00;;;0.90;;
54855;SDS011;40748;53.168;5.800;2022-07-06T05:36:52;6.10;;;0.80;;
54855;SDS011;40748;53.168;5.800;2022-07-06T05:39:22;6.10;;;0.80;;
54855;SDS011;40748;53.168;5.800;2022-07-06T05:41:52;6.10;;;0.80;;
54855;SDS011;40748;53.168;5.800;2022-07-06T05:44:22;6.10;;;0.80;;
54855;SDS011;40748;53.168;5.800;2022-07-06T05:46:52;6.10;;;1.00;;
54855;SDS011;40748;53.168;5.800;2022-07-06T05:49:22;6.10;;;1.00;;
54855;SDS011;40748;53.168;5.800;2022-07-06T05:51:52;6.10;;;1.00;;
54855;SDS011;40748;53.168;5.800;2022-07-06T05:54:22;6.10;;;1.00;;
54855;SDS011;40748;53.168;5.800;2022-07-06T05:59:22;6.50;;;1.00;;
54855;SDS011;40748;53.168;5.800;2022-07-06T06:01:52;6.50;;;1.00;;
54855;SDS011;40748;53.168;5.800;2022-07-06T06:04:22;6.50;;;1.00;;
54855;SDS011;40748;53.168;5.800;2022-07-06T06:06:52;6.50;;;0.90;;
54855;SDS011;40748;53.168;5.800;2022-07-06T06:09:22;6.50;;;0.90;;
54855;SDS011;40748;53.168;5.800;2022-07-06T06:11:52;6.50;;;0.90;;
54855;SDS011;40748;53.168;5.800;2022-07-06T06:14:22;6.50;;;0.90;;
54855;SDS011;40748;53.168;5.800;2022-07-06T06:16:52;5.90;;;1.00;;
54855;SDS011;40748;53.168;5.800;2022-07-06T06:19:22;5.90;;;1.00;;
54855;SDS011;40748;53.168;5.800;2022-07-06T06:21:52;5.90;;;1.00;;
54855;SDS011;40748;53.168;5.800;2022-07-06T06:24:22;5.90;;;1.00;;
54855;SDS011;40748;53.168;5.800;2022-07-06T06:26:52;8.10;;;1.20;;
54855;SDS011;40748;53.168;5.800;2022-07-06T06:29:22;8.10;;;1.20;;
54855;SDS011;40748;53.168;5.800;2022-07-06T06:31:52;8.10;;;1.20;;
54855;SDS011;40748;53.168;5.800;2022-07-06T06:34:22;8.10;;;1.20;;
54855;SDS011;40748;53.168;5.800;2022-07-06T06:36:52;5.00;;;0.90;;
54855;SDS011;40748;53.168;5.800;2022-07-06T06:39:22;5.00;;;0.90;;
54855;SDS011;40748;53.168;5.800;2022-07-06T06:41:52;5.00;;;0.90;;
54855;SDS011;40748;53.168;5.800;2022-07-06T06:44:22;5.00;;;0.90;;
54855;SDS011;40748;53.168;5.800;2022-07-06T06:46:52;12.10;;;1.10;;
54855;SDS011;40748;53.168;5.800;2022-07-06T06:49:22;12.10;;;1.10;;
54855;SDS011;40748;53.168;5.800;2022-07-06T06:51:52;12.10;;;1.10;;
54855;SDS011;40748;53.168;5.800;2022-07-06T06:54:22;12.10;;;1.10;;
54855;SDS011;40748;53.168;5.800;2022-07-06T06:56:52;8.30;;;1.00;;
54855;SDS011;40748;53.168;5.800;2022-07-06T06:59:22;8.30;;;1.00;;
54855;SDS011;40748;53.168;5.800;2022-07-06T07:01:52;8.30;;;1.00;;
54855;SDS011;40748;53.168;5.800;2022-07-06T07:04:22;8.30;;;1.00;;
54855;SDS011;40748;53.168;5.800;2022-07-06T07:06:52;5.70;;;0.70;;
54855;SDS011;40748;53.168;5.800;2022-07-06T07:09:22;5.70;;;0.70;;
54855;SDS011;40748;53.168;5.800;2022-07-06T07:11:52;5.70;;;0.70;;
54855;SDS011;40748;53.168;5.800;2022-07-06T07:14:22;5.70;;;0.70;;
54855;SDS011;40748;53.168;5.800;2022-07-06T07:16:52;4.40;;;0.90;;
54855;SDS011;40748;53.168;5.800;2022-07-06T07:19:22;4.40;;;0.90;;
54855;SDS011;40748;53.168;5.800;2022-07-06T07:21:52;4.40;;;0.90;;
54855;SDS011;40748;53.168;5.800;2022-07-06T07:24:22;4.40;;;0.90;;
54855;SDS011;40748;53.168;5.800;2022-07-06T07:26:52;3.00;;;0.60;;
54855;SDS011;40748;53.168;5.800;2022-07-06T07:29:22;3.00;;;0.60;;
54855;SDS011;40748;53.168;5.800;2022-07-06T07:31:52;3.00;;;0.60;;
54855;SDS011;40748;53.168;5.800;2022-07-06T07:34:22;3.00;;;0.60;;
54855;SDS011;40748;53.168;5.800;2022-07-06T07:36:52;12.90;;;1.20;;
54855;SDS011;40748;53.168;5.800;2022-07-06T07:39:22;12.90;;;1.20;;
54855;SDS011;40748;53.168;5.800;2022-07-06T07:41:52;12.90;;;1.20;;
54855;SDS011;40748;53.168;5.800;2022-07-06T07:44:22;12.90;;;1.20;;
54855;SDS011;40748;53.168;5.800;2022-07-06T07:46:52;4.20;;;0.70;;
54855;SDS011;40748;53.168;5.800;2022-07-06T07:49:22;4.20;;;0.70;;
54855;SDS011;40748;53.168;5.800;2022-07-06T07:51:52;4.20;;;0.70;;
54855;SDS011;40748;53.168;5.800;2022-07-06T07:54:22;4.20;;;0.70;;
54855;SDS011;40748;53.168;5.800;2022-07-06T07:56:52;6.30;;;0.90;;
54855;SDS011;40748;53.168;5.800;2022-07-06T07:59:22;6.30;;;0.90;;
54855;SDS011;40748;53.168;5.800;2022-07-06T08:01:52;6.30;;;0.90;;
54855;SDS011;40748;53.168;5.800;2022-07-06T08:04:22;6.30;;;0.90;;
54855;SDS011;40748;53.168;5.800;2022-07-06T08:06:52;5.30;;;1.10;;
54855;SDS011;40748;53.168;5.800;2022-07-06T08:09:22;5.30;;;1.10;;
54855;SDS011;40748;53.168;5.800;2022-07-06T08:11:52;5.30;;;1.10;;
54855;SDS011;40748;53.168;5.800;2022-07-06T08:14:22;5.30;;;1.10;;
54855;SDS011;40748;53.168;5.800;2022-07-06T08:16:52;8.90;;;0.80;;
54855;SDS011;40748;53.168;5.800;2022-07-06T08:19:22;8.90;;;0.80;;
54855;SDS011;40748;53.168;5.800;2022-07-06T08:21:52;8.90;;;0.80;;
54855;SDS011;40748;53.168;5.800;2022-07-06T08:24:22;8.90;;;0.80;;
54855;SDS011;40748;53.168;5.800;2022-07-06T08:26:52;5.80;;;0.80;;
54855;SDS011;40748;53.168;5.800;2022-07-06T08:29:22;5.80;;;0.80;;
54855;SDS011;40748;53.168;5.800;2022-07-06T08:31:52;5.80;;;0.80;;
54855;SDS011;40748;53.168;5.800;2022-07-06T08:34:23;5.80;;;0.80;;
54855;SDS011;40748;53.168;5.800;2022-07-06T08:36:52;3.30;;;0.70;;
54855;SDS011;40748;53.168;5.800;2022-07-06T08:39:22;3.30;;;0.70;;
54855;SDS011;40748;53.168;5.800;2022-07-06T08:41:55;3.30;;;0.70;;
54855;SDS011;40748;53.168;5.800;2022-07-06T08:44:23;3.30;;;0.70;;
54855;SDS011;40748;53.168;5.800;2022-07-06T08:46:54;6.40;;;0.80;;
54855;SDS011;40748;53.168;5.800;2022-07-06T08:49:22;6.40;;;0.80;;
54855;SDS011;40748;53.168;5.800;2022-07-06T08:51:52;6.40;;;0.80;;
54855;SDS011;40748;53.168;5.800;2022-07-06T08:54:22;6.40;;;0.80;;
54855;SDS011;40748;53.168;5.800;2022-07-06T08:56:52;4.90;;;0.70;;
54855;SDS011;40748;53.168;5.800;2022-07-06T08:59:22;4.90;;;0.70;;
54855;SDS011;40748;53.168;5.800;2022-07-06T09:01:52;4.90;;;0.70;;
54855;SDS011;40748;53.168;5.800;2022-07-06T09:04:22;4.90;;;0.70;;
54855;SDS011;40748;53.168;5.800;2022-07-06T09:06:54;7.60;;;1.00;;
54855;SDS011;40748;53.168;5.800;2022-07-06T09:09:24;7.60;;;1.00;;
54855;SDS011;40748;53.168;5.800;2022-07-06T09:11:52;7.60;;;1.00;;
54855;SDS011;40748;53.168;5.800;2022-07-06T09:14:22;7.60;;;1.00;;
54855;SDS011;40748;53.168;5.800;2022-07-06T09:17:01;5.50;;;0.90;;
54855;SDS011;40748;53.168;5.800;2022-07-06T09:19:22;5.50;;;0.90;;
54855;SDS011;40748;53.168;5.800;2022-07-06T09:21:52;5.50;;;0.90;;
54855;SDS011;40748;53.168;5.800;2022-07-06T09:24:22;5.50;;;0.90;;
54855;SDS011;40748;53.168;5.800;2022-07-06T09:26:54;2.80;;;0.70;;
54855;SDS011;40748;53.168;5.800;2022-07-06T09:29:26;2.80;;;0.70;;
54855;SDS011;40748;53.168;5.800;2022-07-06T09:31:56;2.80;;;0.70;;
54855;SDS011;40748;53.168;5.800;2022-07-06T09:34:22;2.80;;;0.70;;
54855;SDS011;40748;53.168;5.800;2022-07-06T09:36:52;7.90;;;0.80;;
54855;SDS011;40748;53.168;5.800;2022-07-06T09:39:24;7.90;;;0.80;;
54855;SDS011;40748;53.168;5.800;2022-07-06T09:41:53;7.90;;;0.80;;
54855;SDS011;40748;53.168;5.800;2022-07-06T09:44:23;7.90;;;0.80;;
54855;SDS011;40748;53.168;5.800;2022-07-06T09:46:55;5.60;;;0.70;;
54855;SDS011;40748;53.168;5.800;2022-07-06T09:49:22;5.60;;;0.70;;
54855;SDS011;40748;53.168;5.800;2022-07-06T09:51:55;5.60;;;0.70;;
54855;SDS011;40748;53.168;5.800;2022-07-06T09:54:22;5.60;;;0.70;;
54855;SDS011;40748;53.168;5.800;2022-07-06T09:56:54;5.20;;;0.70;;
54855;SDS011;40748;53.168;5.800;2022-07-06T09:59:25;5.20;;;0.70;;
54855;SDS011;40748;53.168;5.800;2022-07-06T10:01:54;5.20;;;0.70;;
54855;SDS011;40748;53.168;5.800;2022-07-06T10:04:23;5.20;;;0.70;;
54855;SDS011;40748;53.168;5.800;2022-07-06T10:06:53;4.40;;;0.70;;
54855;SDS011;40748;53.168;5.800;2022-07-06T10:09:24;4.40;;;0.70;;
54855;SDS011;40748;53.168;5.800;2022-07-06T10:11:53;4.40;;;0.70;;
54855;SDS011;40748;53.168;5.800;2022-07-06T10:14:24;4.40;;;0.70;;
54855;SDS011;40748;53.168;5.800;2022-07-06T10:16:52;3.60;;;0.60;;
54855;SDS011;40748;53.168;5.800;2022-07-06T10:19:22;3.60;;;0.60;;
54855;SDS011;40748;53.168;5.800;2022-07-06T10:21:52;3.60;;;0.60;;
54855;SDS011;40748;53.168;5.800;2022-07-06T10:24:22;3.60;;;0.60;;
54855;SDS011;40748;53.168;5.800;2022-07-06T10:26:52;4.80;;;0.70;;
54855;SDS011;40748;53.168;5.800;2022-07-06T10:31:53;4.80;;;0.70;;
54855;SDS011;40748;53.168;5.800;2022-07-06T10:34:22;4.80;;;0.70;;
54855;SDS011;40748;53.168;5.800;2022-07-06T10:36:53;4.60;;;0.60;;
54855;SDS011;40748;53.168;5.800;2022-07-06T10:39:33;4.60;;;0.60;;
54855;SDS011;40748;53.168;5.800;2022-07-06T10:41:53;4.60;;;0.60;;
54855;SDS011;40748;53.168;5.800;2022-07-06T10:44:25;4.60;;;0.60;;
54855;SDS011;40748;53.168;5.800;2022-07-06T10:46:53;4.00;;;0.80;;
54855;SDS011;40748;53.168;5.800;2022-07-06T10:49:24;4.00;;;0.80;;
54855;SDS011;40748;53.168;5.800;2022-07-06T10:51:52;4.00;;;0.80;;
54855;SDS011;40748;53.168;5.800;2022-07-06T10:54:22;4.00;;;0.80;;
54855;SDS011;40748;53.168;5.800;2022-07-06T10:56:52;4.70;;;0.80;;
54855;SDS011;40748;53.168;5.800;2022-07-06T10:59:23;4.70;;;0.80;;
54855;SDS011;40748;53.168;5.800;2022-07-06T11:04:30;4.70;;;0.80;;
54855;SDS011;40748;53.168;5.800;2022-07-06T11:06:52;3.90;;;0.70;;
54855;SDS011;40748;53.168;5.800;2022-07-06T11:09:31;3.90;;;0.70;;
54855;SDS011;40748;53.168;5.800;2022-07-06T11:11:56;3.90;;;0.70;;
54855;SDS011;40748;53.168;5.800;2022-07-06T11:14:22;3.90;;;0.70;;
54855;SDS011;40748;53.168;5.800;2022-07-06T11:17:01;6.20;;;0.80;;
54855;SDS011;40748;53.168;5.800;2022-07-06T11:19:23;6.20;;;0.80;;
54855;SDS011;40748;53.168;5.800;2022-07-06T11:21:54;6.20;;;0.80;;
54855;SDS011;40748;53.168;5.800;2022-07-06T11:24:24;6.20;;;0.80;;
54855;SDS011;40748;53.168;5.800;2022-07-06T11:26:53;3.40;;;0.80;;
54855;SDS011;40748;53.168;5.800;2022-07-06T11:29:25;3.40;;;0.80;;
54855;SDS011;40748;53.168;5.800;2022-07-06T11:31:54;3.40;;;0.80;;
54855;SDS011;40748;53.168;5.800;2022-07-06T11:34:24;3.40;;;0.80;;
54855;SDS011;40748;53.168;5.800;2022-07-06T11:36:56;4.90;;;0.90;;
54855;SDS011;40748;53.168;5.800;2022-07-06T11:39:23;4.90;;;0.90;;
54855;SDS011;40748;53.168;5.800;2022-07-06T11:41:54;4.90;;;0.90;;
54855;SDS011;40748;53.168;5.800;2022-07-06T11:44:22;4.90;;;0.90;;
54855;SDS011;40748;53.168;5.800;2022-07-06T11:46:53;5.20;;;1.00;;
54855;SDS011;40748;53.168;5.800;2022-07-06T11:49:22;5.20;;;1.00;;
54855;SDS011;40748;53.168;5.800;2022-07-06T11:51:52;5.20;;;1.00;;
54855;SDS011;40748;53.168;5.800;2022-07-06T11:54:24;5.20;;;1.00;;
54855;SDS011;40748;53.168;5.800;2022-07-06T11:56:54;5.40;;;0.90;;
54855;SDS011;40748;53.168;5.800;2022-07-06T11:59:25;5.40;;;0.90;;
54855;SDS011;40748;53.168;5.800;2022-07-06T12:02:00;5.40;;;0.90;;
54855;SDS011;40748;53.168;5.800;2022-07-06T12:04:24;5.40;;;0.90;;
54855;SDS011;40748;53.168;5.800;2022-07-06T12:06:52;5.10;;;0.80;;
54855;SDS011;40748;53.168;5.800;2022-07-06T12:09:22;5.10;;;0.80;;
54855;SDS011;40748;53.168;5.800;2022-07-06T12:11:52;5.10;;;0.80;;
54855;SDS011;40748;53.168;5.800;2022-07-06T12:14:22;5.10;;;0.80;;
54855;SDS011;40748;53.168;5.800;2022-07-06T12:16:52;2.60;;;0.80;;
54855;SDS011;40748;53.168;5.800;2022-07-06T12:19:22;2.60;;;0.80;;
54855;SDS011;40748;53.168;5.800;2022-07-06T12:21:52;2.60;;;0.80;;
54855;SDS011;40748;53.168;5.800;2022-07-06T12:24:24;2.60;;;0.80;;
54855;SDS011;40748;53.168;5.800;2022-07-06T12:26:53;5.70;;;0.90;;
54855;SDS011;40748;53.168;5.800;2022-07-06T12:29:22;5.70;;;0.90;;
54855;SDS011;40748;53.168;5.800;2022-07-06T12:31:54;5.70;;;0.90;;
54855;SDS011;40748;53.168;5.800;2022-07-06T12:34:24;5.70;;;0.90;;
54855;SDS011;40748;53.168;5.800;2022-07-06T12:36:54;3.70;;;0.80;;
54855;SDS011;40748;53.168;5.800;2022-07-06T12:39:24;3.70;;;0.80;;
54855;SDS011;40748;53.168;5.800;2022-07-06T12:41:54;3.70;;;0.80;;
54855;SDS011;40748;53.168;5.800;2022-07-06T12:44:23;3.70;;;0.80;;
54855;SDS011;40748;53.168;5.800;2022-07-06T12:47:02;4.40;;;1.00;;
54855;SDS011;40748;53.168;5.800;2022-07-06T12:49:23;4.40;;;1.00;;
54855;SDS011;40748;53.168;5.800;2022-07-06T12:51:55;4.40;;;1.00;;
54855;SDS011;40748;53.168;5.800;2022-07-06T12:54:23;4.40;;;1.00;;
54855;SDS011;40748;53.168;5.800;2022-07-06T12:57:01;6.40;;;1.30;;
54855;SDS011;40748;53.168;5.800;2022-07-06T12:59:23;6.40;;;1.30;;
54855;SDS011;40748;53.168;5.800;2022-07-06T13:01:53;6.40;;;1.30;;
54855;SDS011;40748;53.168;5.800;2022-07-06T13:04:23;6.40;;;1.30;;
54855;SDS011;40748;53.168;5.800;2022-07-06T13:06:53;5.30;;;1.00;;
54855;SDS011;40748;53.168;5.800;2022-07-06T13:09:22;5.30;;;1.00;;
54855;SDS011;40748;53.168;5.800;2022-07-06T13:11:52;5.30;;;1.00;;
54855;SDS011;40748;53.168;5.800;2022-07-06T13:14:22;5.30;;;1.00;;
54855;SDS011;40748;53.168;5.800;2022-07-06T13:16:52;6.50;;;1.10;;
54855;SDS011;40748;53.168;5.800;2022-07-06T13:19:22;6.50;;;1.10;;
54855;SDS011;40748;53.168;5.800;2022-07-06T13:21:52;6.50;;;1.10;;
54855;SDS011;40748;53.168;5.800;2022-07-06T13:24:22;6.50;;;1.10;;
54855;SDS011;40748;53.168;5.800;2022-07-06T13:26:52;7.60;;;1.20;;
54855;SDS011;40748;53.168;5.800;2022-07-06T13:29:23;7.60;;;1.20;;
54855;SDS011;40748;53.168;5.800;2022-07-06T13:31:52;7.60;;;1.20;;
54855;SDS011;40748;53.168;5.800;2022-07-06T13:34:22;7.60;;;1.20;;
54855;SDS011;40748;53.168;5.800;2022-07-06T13:36:52;6.80;;;1.10;;
54855;SDS011;40748;53.168;5.800;2022-07-06T13:39:22;6.80;;;1.10;;
54855;SDS011;40748;53.168;5.800;2022-07-06T13:41:52;6.80;;;1.10;;
54855;SDS011;40748;53.168;5.800;2022-07-06T13:44:22;6.80;;;1.10;;
54855;SDS011;40748;53.168;5.800;2022-07-06T13:46:52;6.40;;;1.20;;
54855;SDS011;40748;53.168;5.800;2022-07-06T13:49:22;6.40;;;1.20;;
54855;SDS011;40748;53.168;5.800;2022-07-06T13:51:52;6.40;;;1.20;;
54855;SDS011;40748;53.168;5.800;2022-07-06T13:54:22;6.40;;;1.20;;
54855;SDS011;40748;53.168;5.800;2022-07-06T13:56:52;6.70;;;1.30;;
54855;SDS011;40748;53.168;5.800;2022-07-06T13:59:22;6.70;;;1.30;;
54855;SDS011;40748;53.168;5.800;2022-07-06T14:01:52;6.70;;;1.30;;
54855;SDS011;40748;53.168;5.800;2022-07-06T14:04:22;6.70;;;1.30;;
54855;SDS011;40748;53.168;5.800;2022-07-06T14:06:53;7.40;;;1.40;;
54855;SDS011;40748;53.168;5.800;2022-07-06T14:09:22;7.40;;;1.40;;
54855;SDS011;40748;53.168;5.800;2022-07-06T14:11:52;7.40;;;1.40;;
54855;SDS011;40748;53.168;5.800;2022-07-06T14:14:23;7.40;;;1.40;;
54855;SDS011;40748;53.168;5.800;2022-07-06T14:16:52;12.70;;;2.20;;
54855;SDS011;40748;53.168;5.800;2022-07-06T14:19:22;12.70;;;2.20;;
54855;SDS011;40748;53.168;5.800;2022-07-06T14:21:52;12.70;;;2.20;;
54855;SDS011;40748;53.168;5.800;2022-07-06T14:24:22;12.70;;;2.20;;
54855;SDS011;40748;53.168;5.800;2022-07-06T14:26:52;7.70;;;2.20;;
54855;SDS011;40748;53.168;5.800;2022-07-06T14:29:22;7.70;;;2.20;;
54855;SDS011;40748;53.168;5.800;2022-07-06T14:31:52;7.70;;;2.20;;
54855;SDS011;40748;53.168;5.800;2022-07-06T14:34:22;7.70;;;2.20;;
54855;SDS011;40748;53.168;5.800;2022-07-06T14:36:52;8.50;;;1.70;;
54855;SDS011;40748;53.168;5.800;2022-07-06T14:39:22;8.50;;;1.70;;
54855;SDS011;40748;53.168;5.800;2022-07-06T14:41:52;8.50;;;1.70;;
54855;SDS011;40748;53.168;5.800;2022-07-06T14:44:22;8.50;;;1.70;;
54855;SDS011;40748;53.168;5.800;2022-07-06T14:46:52;6.90;;;1.90;;
54855;SDS011;40748;53.168;5.800;2022-07-06T14:49:22;6.90;;;1.90;;
54855;SDS011;40748;53.168;5.800;2022-07-06T14:51:52;6.90;;;1.90;;
54855;SDS011;40748;53.168;5.800;2022-07-06T14:54:23;6.90;;;1.90;;
54855;SDS011;40748;53.168;5.800;2022-07-06T14:56:52;8.00;;;1.90;;
54855;SDS011;40748;53.168;5.800;2022-07-06T14:59:22;8.00;;;1.90;;
54855;SDS011;40748;53.168;5.800;2022-07-06T15:04:22;8.00;;;1.90;;
54855;SDS011;40748;53.168;5.800;2022-07-06T15:06:52;6.00;;;2.30;;
54855;SDS011;40748;53.168;5.800;2022-07-06T15:09:23;6.00;;;2.30;;
54855;SDS011;40748;53.168;5.800;2022-07-06T15:11:52;6.00;;;2.30;;
54855;SDS011;40748;53.168;5.800;2022-07-06T15:14:22;6.00;;;2.30;;
54855;SDS011;40748;53.168;5.800;2022-07-06T15:16:52;15.10;;;2.60;;
54855;SDS011;40748;53.168;5.800;2022-07-06T15:19:22;15.10;;;2.60;;
54855;SDS011;40748;53.168;5.800;2022-07-06T15:24:22;15.10;;;2.60;;
54855;SDS011;40748;53.168;5.800;2022-07-06T15:26:52;10.30;;;2.50;;
54855;SDS011;40748;53.168;5.800;2022-07-06T15:29:23;10.30;;;2.50;;
54855;SDS011;40748;53.168;5.800;2022-07-06T15:31:53;10.30;;;2.50;;
54855;SDS011;40748;53.168;5.800;2022-07-06T15:34:22;10.30;;;2.50;;
54855;SDS011;40748;53.168;5.800;2022-07-06T15:36:52;8.10;;;2.60;;
54855;SDS011;40748;53.168;5.800;2022-07-06T15:39:22;8.10;;;2.60;;
54855;SDS011;40748;53.168;5.800;2022-07-06T15:41:52;8.10;;;2.60;;
54855;SDS011;40748;53.168;5.800;2022-07-06T15:44:22;8.10;;;2.60;;
54855;SDS011;40748;53.168;5.800;2022-07-06T15:46:52;11.90;;;3.00;;
54855;SDS011;40748;53.168;5.800;2022-07-06T15:49:22;11.90;;;3.00;;
54855;SDS011;40748;53.168;5.800;2022-07-06T15:51:52;11.90;;;3.00;;
54855;SDS011;40748;53.168;5.800;2022-07-06T15:54:22;11.90;;;3.00;;
54855;SDS011;40748;53.168;5.800;2022-07-06T15:56:53;11.70;;;5.10;;
54855;SDS011;40748;53.168;5.800;2022-07-06T15:59:22;11.70;;;5.10;;
54855;SDS011;40748;53.168;5.800;2022-07-06T16:01:52;11.70;;;5.10;;
54855;SDS011;40748;53.168;5.800;2022-07-06T16:04:22;11.70;;;5.10;;
54855;SDS011;40748;53.168;5.800;2022-07-06T16:06:52;12.40;;;4.30;;
54855;SDS011;40748;53.168;5.800;2022-07-06T16:11:52;12.40;;;4.30;;